sensor_id;sensor_type;location;lat;lon;timestamp;temperature;humidity
14737;DHT22;7459;53.590;10.062;2022-10-17T00:01:06;13.50;99.90
14737;DHT22;7459;53.590;10.062;2022-10-17T00:03:32;13.50;99.90
14737;DHT22;7459;53.590;10.062;2022-10-17T00:06:08;13.50;99.90
14737;DHT22;7459;53.590;10.062;2022-10-17T00:08:36;13.50;99.90
14737;DHT22;7459;53.590;10.062;2022-10-17T00:11:06;13.50;99.90
14737;DHT22;7459;53.590;10.062;2022-10-17T00:13:34;13.50;99.90
14737;DHT22;7459;53.590;10.062;2022-10-17T00:16:00;13.50;99.90
14737;DHT22;7459;53.590;10.062;2022-10-17T00:18:26;13.50;99.90
14737;DHT22;7459;53.590;10.062;2022-10-17T00:20:52;13.50;99.90
14737;DHT22;7459;53.590;10.062;2022-10-17T00:23:18;13.50;99.90
14737;DHT22;7459;53.590;10.062;2022-10-17T00:25:43;13.50;99.90
14737;DHT22;7459;53.590;10.062;2022-10-17T00:28:10;13.50;99.90
14737;DHT22;7459;53.590;10.062;2022-10-17T00:30:37;13.50;99.90
14737;DHT22;7459;53.590;10.062;2022-10-17T00:33:03;13.50;99.90
14737;DHT22;7459;53.590;10.062;2022-10-17T00:35:29;13.50;99.90
14737;DHT22;7459;53.590;10.062;2022-10-17T00:37:55;13.50;99.90
14737;DHT22;7459;53.590;10.062;2022-10-17T00:40:21;13.50;99.90
14737;DHT22;7459;53.590;10.062;2022-10-17T00:42:46;13.50;99.90
14737;DHT22;7459;53.590;10.062;2022-10-17T00:45:27;13.50;99.90
14737;DHT22;7459;53.590;10.062;2022-10-17T00:47:58;13.50;99.90
14737;DHT22;7459;53.590;10.062;2022-10-17T00:50:27;13.40;99.90
14737;DHT22;7459;53.590;10.062;2022-10-17T00:52:53;13.50;99.90
14737;DHT22;7459;53.590;10.062;2022-10-17T00:55:24;13.50;99.90
14737;DHT22;7459;53.590;10.062;2022-10-17T00:57:54;13.50;99.90
14737;DHT22;7459;53.590;10.062;2022-10-17T01:00:21;13.50;99.90
14737;DHT22;7459;53.590;10.062;2022-10-17T01:02:48;13.50;99.90
14737;DHT22;7459;53.590;10.062;2022-10-17T01:05:15;13.50;99.90
14737;DHT22;7459;53.590;10.062;2022-10-17T01:07:42;13.50;99.90
14737;DHT22;7459;53.590;10.062;2022-10-17T01:10:09;13.50;99.90
14737;DHT22;7459;53.590;10.062;2022-10-17T01:12:40;13.50;99.90
14737;DHT22;7459;53.590;10.062;2022-10-17T01:18:12;13.50;99.90
14737;DHT22;7459;53.590;10.062;2022-10-17T01:24:21;13.50;99.90
14737;DHT22;7459;53.590;10.062;2022-10-17T01:30:21;13.50;99.90
14737;DHT22;7459;53.590;10.062;2022-10-17T01:32:57;13.50;99.90
14737;DHT22;7459;53.590;10.062;2022-10-17T01:35:41;13.50;99.90
14737;DHT22;7459;53.590;10.062;2022-10-17T01:40:59;13.60;99.90
14737;DHT22;7459;53.590;10.062;2022-10-17T01:43:43;13.60;99.90
14737;DHT22;7459;53.590;10.062;2022-10-17T01:46:22;13.60;99.90
14737;DHT22;7459;53.590;10.062;2022-10-17T01:48:52;13.60;99.90
14737;DHT22;7459;53.590;10.062;2022-10-17T01:51:24;13.60;99.90
14737;DHT22;7459;53.590;10.062;2022-10-17T01:53:57;13.60;99.90
14737;DHT22;7459;53.590;10.062;2022-10-17T01:56:27;13.60;99.90
14737;DHT22;7459;53.590;10.062;2022-10-17T01:59:16;13.60;99.90
14737;DHT22;7459;53.590;10.062;2022-10-17T02:01:46;13.70;99.90
14737;DHT22;7459;53.590;10.062;2022-10-17T02:06:48;13.70;99.90
14737;DHT22;7459;53.590;10.062;2022-10-17T02:09:22;13.70;99.90
14737;DHT22;7459;53.590;10.062;2022-10-17T02:14:53;13.80;99.90
14737;DHT22;7459;53.590;10.062;2022-10-17T02:18:06;13.80;99.90
14737;DHT22;7459;53.590;10.062;2022-10-17T02:20:59;13.80;99.90
14737;DHT22;7459;53.590;10.062;2022-10-17T02:26:31;13.80;99.90
14737;DHT22;7459;53.590;10.062;2022-10-17T02:29:15;13.80;99.90
14737;DHT22;7459;53.590;10.062;2022-10-17T02:32:09;13.80;99.90
14737;DHT22;7459;53.590;10.062;2022-10-17T02:34:41;13.80;99.90
14737;DHT22;7459;53.590;10.062;2022-10-17T02:37:13;13.90;99.90
14737;DHT22;7459;53.590;10.062;2022-10-17T02:39:40;13.90;99.90
14737;DHT22;7459;53.590;10.062;2022-10-17T02:42:09;13.90;99.90
14737;DHT22;7459;53.590;10.062;2022-10-17T02:44:42;13.90;99.90
14737;DHT22;7459;53.590;10.062;2022-10-17T02:47:15;13.90;99.90
14737;DHT22;7459;53.590;10.062;2022-10-17T02:49:49;13.90;99.90
14737;DHT22;7459;53.590;10.062;2022-10-17T02:52:45;13.90;99.90
14737;DHT22;7459;53.590;10.062;2022-10-17T02:55:19;13.90;99.90
14737;DHT22;7459;53.590;10.062;2022-10-17T02:57:54;13.90;99.90
14737;DHT22;7459;53.590;10.062;2022-10-17T03:00:24;14.00;99.90
14737;DHT22;7459;53.590;10.062;2022-10-17T03:02:52;14.00;99.90
14737;DHT22;7459;53.590;10.062;2022-10-17T03:05:21;14.00;99.90
14737;DHT22;7459;53.590;10.062;2022-10-17T03:07:49;14.00;99.90
14737;DHT22;7459;53.590;10.062;2022-10-17T03:10:15;14.00;99.90
14737;DHT22;7459;53.590;10.062;2022-10-17T03:12:41;14.00;99.90
14737;DHT22;7459;53.590;10.062;2022-10-17T03:15:07;14.10;99.90
14737;DHT22;7459;53.590;10.062;2022-10-17T03:17:34;14.00;99.90
14737;DHT22;7459;53.590;10.062;2022-10-17T03:20:00;14.00;99.90
14737;DHT22;7459;53.590;10.062;2022-10-17T03:22:26;14.10;99.90
14737;DHT22;7459;53.590;10.062;2022-10-17T03:24:51;14.10;99.90
14737;DHT22;7459;53.590;10.062;2022-10-17T03:27:17;14.10;99.90
14737;DHT22;7459;53.590;10.062;2022-10-17T03:29:43;14.10;99.90
14737;DHT22;7459;53.590;10.062;2022-10-17T03:32:09;14.00;99.90
14737;DHT22;7459;53.590;10.062;2022-10-17T03:34:34;14.10;99.90
14737;DHT22;7459;53.590;10.062;2022-10-17T03:37:00;14.10;99.90
14737;DHT22;7459;53.590;10.062;2022-10-17T03:39:26;14.10;99.90
14737;DHT22;7459;53.590;10.062;2022-10-17T03:41:52;14.10;99.90
14737;DHT22;7459;53.590;10.062;2022-10-17T03:44:17;14.00;99.90
14737;DHT22;7459;53.590;10.062;2022-10-17T03:46:43;14.00;99.90
14737;DHT22;7459;53.590;10.062;2022-10-17T03:49:09;14.00;99.90
14737;DHT22;7459;53.590;10.062;2022-10-17T03:51:35;14.00;99.90
14737;DHT22;7459;53.590;10.062;2022-10-17T03:54:01;14.00;99.90
14737;DHT22;7459;53.590;10.062;2022-10-17T03:56:27;14.00;99.90
14737;DHT22;7459;53.590;10.062;2022-10-17T03:58:53;14.00;99.90
14737;DHT22;7459;53.590;10.062;2022-10-17T04:01:20;14.00;99.90
14737;DHT22;7459;53.590;10.062;2022-10-17T04:03:50;14.00;99.90
14737;DHT22;7459;53.590;10.062;2022-10-17T04:06:18;14.00;99.90
14737;DHT22;7459;53.590;10.062;2022-10-17T04:08:45;14.00;99.90
14737;DHT22;7459;53.590;10.062;2022-10-17T04:11:14;13.90;99.90
14737;DHT22;7459;53.590;10.062;2022-10-17T04:13:43;14.00;99.90
14737;DHT22;7459;53.590;10.062;2022-10-17T04:16:14;14.00;99.90
14737;DHT22;7459;53.590;10.062;2022-10-17T04:18:42;14.00;99.90
14737;DHT22;7459;53.590;10.062;2022-10-17T04:21:08;14.00;99.90
14737;DHT22;7459;53.590;10.062;2022-10-17T04:23:34;14.00;99.90
14737;DHT22;7459;53.590;10.062;2022-10-17T04:26:01;14.00;99.90
14737;DHT22;7459;53.590;10.062;2022-10-17T04:28:28;14.00;99.90
14737;DHT22;7459;53.590;10.062;2022-10-17T04:30:56;14.00;99.90
14737;DHT22;7459;53.590;10.062;2022-10-17T04:33:25;14.00;99.90
14737;DHT22;7459;53.590;10.062;2022-10-17T04:35:58;13.90;99.90
14737;DHT22;7459;53.590;10.062;2022-10-17T04:38:29;13.90;99.90
14737;DHT22;7459;53.590;10.062;2022-10-17T04:40:59;13.90;99.90
14737;DHT22;7459;53.590;10.062;2022-10-17T04:43:30;13.90;99.90
14737;DHT22;7459;53.590;10.062;2022-10-17T04:45:57;14.00;99.90
14737;DHT22;7459;53.590;10.062;2022-10-17T04:48:23;13.90;99.90
14737;DHT22;7459;53.590;10.062;2022-10-17T04:50:53;13.90;99.90
14737;DHT22;7459;53.590;10.062;2022-10-17T04:53:20;13.90;99.90
14737;DHT22;7459;53.590;10.062;2022-10-17T04:55:46;13.90;99.90
14737;DHT22;7459;53.590;10.062;2022-10-17T04:58:12;13.90;99.90
14737;DHT22;7459;53.590;10.062;2022-10-17T05:00:37;13.90;99.90
14737;DHT22;7459;53.590;10.062;2022-10-17T05:03:03;13.80;99.90
14737;DHT22;7459;53.590;10.062;2022-10-17T05:05:29;13.80;99.90
14737;DHT22;7459;53.590;10.062;2022-10-17T05:07:55;13.80;99.90
14737;DHT22;7459;53.590;10.062;2022-10-17T05:10:21;13.80;99.90
14737;DHT22;7459;53.590;10.062;2022-10-17T05:12:48;13.80;99.90
14737;DHT22;7459;53.590;10.062;2022-10-17T05:15:14;13.80;99.90
14737;DHT22;7459;53.590;10.062;2022-10-17T05:17:40;13.80;99.90
14737;DHT22;7459;53.590;10.062;2022-10-17T05:20:06;13.80;99.90
14737;DHT22;7459;53.590;10.062;2022-10-17T05:22:32;13.70;99.90
14737;DHT22;7459;53.590;10.062;2022-10-17T05:24:58;13.70;99.90
14737;DHT22;7459;53.590;10.062;2022-10-17T05:27:24;13.70;99.90
14737;DHT22;7459;53.590;10.062;2022-10-17T05:29:49;13.70;99.90
14737;DHT22;7459;53.590;10.062;2022-10-17T05:32:15;13.70;99.90
14737;DHT22;7459;53.590;10.062;2022-10-17T05:34:41;13.70;99.90
14737;DHT22;7459;53.590;10.062;2022-10-17T05:37:07;13.70;99.90
14737;DHT22;7459;53.590;10.062;2022-10-17T05:39:33;13.60;99.90
14737;DHT22;7459;53.590;10.062;2022-10-17T05:41:58;13.70;99.90
14737;DHT22;7459;53.590;10.062;2022-10-17T05:44:24;13.60;99.90
14737;DHT22;7459;53.590;10.062;2022-10-17T05:46:50;13.60;99.90
14737;DHT22;7459;53.590;10.062;2022-10-17T05:49:16;13.60;99.90
14737;DHT22;7459;53.590;10.062;2022-10-17T05:51:42;13.60;99.90
14737;DHT22;7459;53.590;10.062;2022-10-17T05:54:08;13.60;99.90
14737;DHT22;7459;53.590;10.062;2022-10-17T05:56:34;13.60;99.90
14737;DHT22;7459;53.590;10.062;2022-10-17T05:59:00;13.60;99.90
14737;DHT22;7459;53.590;10.062;2022-10-17T06:01:26;13.60;99.90
14737;DHT22;7459;53.590;10.062;2022-10-17T06:03:52;13.60;99.90
14737;DHT22;7459;53.590;10.062;2022-10-17T06:06:18;13.60;99.90
14737;DHT22;7459;53.590;10.062;2022-10-17T06:08:44;13.70;99.90
14737;DHT22;7459;53.590;10.062;2022-10-17T06:11:11;13.70;99.90
14737;DHT22;7459;53.590;10.062;2022-10-17T06:13:38;13.70;99.90
14737;DHT22;7459;53.590;10.062;2022-10-17T06:16:04;13.70;99.90
14737;DHT22;7459;53.590;10.062;2022-10-17T06:18:30;13.80;99.90
14737;DHT22;7459;53.590;10.062;2022-10-17T06:21:04;13.70;99.90
14737;DHT22;7459;53.590;10.062;2022-10-17T06:23:31;13.80;99.90
14737;DHT22;7459;53.590;10.062;2022-10-17T06:25:59;13.80;99.90
14737;DHT22;7459;53.590;10.062;2022-10-17T06:28:25;13.90;99.90
14737;DHT22;7459;53.590;10.062;2022-10-17T06:30:51;13.90;99.90
14737;DHT22;7459;53.590;10.062;2022-10-17T06:33:17;13.90;99.90
14737;DHT22;7459;53.590;10.062;2022-10-17T06:35:43;14.00;99.90
14737;DHT22;7459;53.590;10.062;2022-10-17T06:38:08;14.00;99.90
14737;DHT22;7459;53.590;10.062;2022-10-17T06:40:34;14.10;99.90
14737;DHT22;7459;53.590;10.062;2022-10-17T06:43:00;14.10;99.90
14737;DHT22;7459;53.590;10.062;2022-10-17T06:45:26;14.10;99.90
14737;DHT22;7459;53.590;10.062;2022-10-17T06:47:51;14.10;99.90
14737;DHT22;7459;53.590;10.062;2022-10-17T06:50:17;14.10;99.90
14737;DHT22;7459;53.590;10.062;2022-10-17T06:52:43;14.10;99.90
14737;DHT22;7459;53.590;10.062;2022-10-17T06:55:08;14.20;99.90
14737;DHT22;7459;53.590;10.062;2022-10-17T06:57:34;14.20;99.90
14737;DHT22;7459;53.590;10.062;2022-10-17T07:00:00;14.20;99.90
14737;DHT22;7459;53.590;10.062;2022-10-17T07:02:26;14.30;99.90
14737;DHT22;7459;53.590;10.062;2022-10-17T07:04:51;14.30;99.90
14737;DHT22;7459;53.590;10.062;2022-10-17T07:07:17;14.40;99.90
14737;DHT22;7459;53.590;10.062;2022-10-17T07:09:43;14.40;99.90
14737;DHT22;7459;53.590;10.062;2022-10-17T07:12:08;14.50;99.90
14737;DHT22;7459;53.590;10.062;2022-10-17T07:14:36;14.50;99.90
14737;DHT22;7459;53.590;10.062;2022-10-17T07:17:02;14.60;99.90
14737;DHT22;7459;53.590;10.062;2022-10-17T07:19:28;14.70;99.90
14737;DHT22;7459;53.590;10.062;2022-10-17T07:21:53;14.70;99.90
14737;DHT22;7459;53.590;10.062;2022-10-17T07:24:20;14.80;99.90
14737;DHT22;7459;53.590;10.062;2022-10-17T07:26:45;14.80;99.90
14737;DHT22;7459;53.590;10.062;2022-10-17T07:29:11;14.90;99.90
14737;DHT22;7459;53.590;10.062;2022-10-17T07:31:37;15.00;99.90
14737;DHT22;7459;53.590;10.062;2022-10-17T07:34:03;15.10;99.90
14737;DHT22;7459;53.590;10.062;2022-10-17T07:36:29;15.10;99.90
14737;DHT22;7459;53.590;10.062;2022-10-17T07:38:54;15.10;99.90
14737;DHT22;7459;53.590;10.062;2022-10-17T07:41:20;15.10;99.90
14737;DHT22;7459;53.590;10.062;2022-10-17T07:43:46;15.10;99.90
14737;DHT22;7459;53.590;10.062;2022-10-17T07:46:12;15.10;99.90
14737;DHT22;7459;53.590;10.062;2022-10-17T07:48:38;15.10;99.90
14737;DHT22;7459;53.590;10.062;2022-10-17T07:51:06;15.10;99.90
14737;DHT22;7459;53.590;10.062;2022-10-17T07:53:39;15.10;99.90
14737;DHT22;7459;53.590;10.062;2022-10-17T07:56:10;15.10;99.90
14737;DHT22;7459;53.590;10.062;2022-10-17T07:58:37;15.20;99.90
14737;DHT22;7459;53.590;10.062;2022-10-17T08:01:05;15.30;99.90
14737;DHT22;7459;53.590;10.062;2022-10-17T08:03:32;15.30;99.90
14737;DHT22;7459;53.590;10.062;2022-10-17T08:06:02;15.40;99.90
14737;DHT22;7459;53.590;10.062;2022-10-17T08:08:28;15.50;99.90
14737;DHT22;7459;53.590;10.062;2022-10-17T08:10:54;15.50;99.90
14737;DHT22;7459;53.590;10.062;2022-10-17T08:13:21;15.50;99.90
14737;DHT22;7459;53.590;10.062;2022-10-17T08:15:47;15.50;99.90
14737;DHT22;7459;53.590;10.062;2022-10-17T08:18:14;15.60;99.90
14737;DHT22;7459;53.590;10.062;2022-10-17T08:20:41;15.60;99.90
14737;DHT22;7459;53.590;10.062;2022-10-17T08:23:07;15.60;99.90
14737;DHT22;7459;53.590;10.062;2022-10-17T08:25:33;15.60;99.90
14737;DHT22;7459;53.590;10.062;2022-10-17T08:27:58;15.60;99.90
14737;DHT22;7459;53.590;10.062;2022-10-17T08:30:24;15.60;99.90
14737;DHT22;7459;53.590;10.062;2022-10-17T08:32:50;15.60;99.90
14737;DHT22;7459;53.590;10.062;2022-10-17T08:35:16;15.60;99.90
14737;DHT22;7459;53.590;10.062;2022-10-17T08:37:42;15.70;99.90
14737;DHT22;7459;53.590;10.062;2022-10-17T08:40:21;15.70;99.90
14737;DHT22;7459;53.590;10.062;2022-10-17T08:43:16;15.80;99.90
14737;DHT22;7459;53.590;10.062;2022-10-17T08:45:56;15.80;99.90
14737;DHT22;7459;53.590;10.062;2022-10-17T08:48:26;15.80;99.90
14737;DHT22;7459;53.590;10.062;2022-10-17T08:51:08;15.90;99.90
14737;DHT22;7459;53.590;10.062;2022-10-17T08:53:55;15.90;99.90
14737;DHT22;7459;53.590;10.062;2022-10-17T08:56:25;15.90;99.90
14737;DHT22;7459;53.590;10.062;2022-10-17T08:58:54;15.90;99.90
14737;DHT22;7459;53.590;10.062;2022-10-17T09:01:35;15.90;99.90
14737;DHT22;7459;53.590;10.062;2022-10-17T09:07:34;16.00;99.90
14737;DHT22;7459;53.590;10.062;2022-10-17T09:16:37;16.20;99.90
14737;DHT22;7459;53.590;10.062;2022-10-17T09:19:36;16.30;99.90
14737;DHT22;7459;53.590;10.062;2022-10-17T09:22:09;16.40;99.90
14737;DHT22;7459;53.590;10.062;2022-10-17T09:24:50;16.40;99.90
14737;DHT22;7459;53.590;10.062;2022-10-17T09:27:25;16.50;99.90
14737;DHT22;7459;53.590;10.062;2022-10-17T09:30:14;16.60;99.90
14737;DHT22;7459;53.590;10.062;2022-10-17T09:32:41;16.70;99.90
14737;DHT22;7459;53.590;10.062;2022-10-17T09:35:12;16.70;99.90
14737;DHT22;7459;53.590;10.062;2022-10-17T09:37:39;16.70;99.90
14737;DHT22;7459;53.590;10.062;2022-10-17T09:40:07;16.80;99.90
14737;DHT22;7459;53.590;10.062;2022-10-17T09:42:39;16.80;99.90
14737;DHT22;7459;53.590;10.062;2022-10-17T09:45:20;16.80;99.90
14737;DHT22;7459;53.590;10.062;2022-10-17T09:48:10;16.90;99.90
14737;DHT22;7459;53.590;10.062;2022-10-17T09:50:44;16.90;99.90
14737;DHT22;7459;53.590;10.062;2022-10-17T09:53:23;17.00;99.90
14737;DHT22;7459;53.590;10.062;2022-10-17T09:55:56;17.00;99.90
14737;DHT22;7459;53.590;10.062;2022-10-17T09:58:47;17.10;99.90
14737;DHT22;7459;53.590;10.062;2022-10-17T10:01:29;17.20;99.90
14737;DHT22;7459;53.590;10.062;2022-10-17T10:04:12;17.20;99.90
14737;DHT22;7459;53.590;10.062;2022-10-17T10:06:40;17.30;99.90
14737;DHT22;7459;53.590;10.062;2022-10-17T10:09:28;17.30;99.90
14737;DHT22;7459;53.590;10.062;2022-10-17T10:11:57;17.40;99.90
14737;DHT22;7459;53.590;10.062;2022-10-17T10:14:30;17.40;99.90
14737;DHT22;7459;53.590;10.062;2022-10-17T10:17:02;17.50;99.90
14737;DHT22;7459;53.590;10.062;2022-10-17T10:19:35;17.50;99.90
14737;DHT22;7459;53.590;10.062;2022-10-17T10:22:13;17.60;99.90
14737;DHT22;7459;53.590;10.062;2022-10-17T10:24:40;17.60;99.90
14737;DHT22;7459;53.590;10.062;2022-10-17T10:27:12;17.60;99.90
14737;DHT22;7459;53.590;10.062;2022-10-17T10:29:42;17.70;99.90
14737;DHT22;7459;53.590;10.062;2022-10-17T10:32:31;17.70;99.90
14737;DHT22;7459;53.590;10.062;2022-10-17T10:35:21;17.80;99.90
14737;DHT22;7459;53.590;10.062;2022-10-17T10:37:54;17.80;99.90
14737;DHT22;7459;53.590;10.062;2022-10-17T10:40:35;17.80;99.90
14737;DHT22;7459;53.590;10.062;2022-10-17T10:43:04;17.80;99.90
14737;DHT22;7459;53.590;10.062;2022-10-17T10:48:13;18.00;99.90
14737;DHT22;7459;53.590;10.062;2022-10-17T10:51:01;18.00;99.90
14737;DHT22;7459;53.590;10.062;2022-10-17T10:56:45;18.00;99.90
14737;DHT22;7459;53.590;10.062;2022-10-17T10:59:38;18.00;99.90
14737;DHT22;7459;53.590;10.062;2022-10-17T11:02:22;17.90;99.90
14737;DHT22;7459;53.590;10.062;2022-10-17T11:08:09;17.90;99.90
14737;DHT22;7459;53.590;10.062;2022-10-17T11:11:13;17.80;99.90
14737;DHT22;7459;53.590;10.062;2022-10-17T11:14:05;17.90;99.90
14737;DHT22;7459;53.590;10.062;2022-10-17T11:19:53;17.80;99.90
14737;DHT22;7459;53.590;10.062;2022-10-17T11:22:30;17.80;99.90
14737;DHT22;7459;53.590;10.062;2022-10-17T11:27:38;17.70;99.90
14737;DHT22;7459;53.590;10.062;2022-10-17T11:30:04;17.70;99.90
14737;DHT22;7459;53.590;10.062;2022-10-17T11:35:20;17.70;99.90
14737;DHT22;7459;53.590;10.062;2022-10-17T11:37:55;17.80;99.90
14737;DHT22;7459;53.590;10.062;2022-10-17T11:40:32;17.80;99.90
14737;DHT22;7459;53.590;10.062;2022-10-17T11:43:15;17.80;99.90
14737;DHT22;7459;53.590;10.062;2022-10-17T11:45:49;17.80;99.90
14737;DHT22;7459;53.590;10.062;2022-10-17T11:48:26;17.90;99.90
14737;DHT22;7459;53.590;10.062;2022-10-17T11:51:08;17.90;99.90
14737;DHT22;7459;53.590;10.062;2022-10-17T11:53:59;18.00;99.90
14737;DHT22;7459;53.590;10.062;2022-10-17T11:56:48;18.10;99.90
14737;DHT22;7459;53.590;10.062;2022-10-17T11:59:52;18.10;99.90
14737;DHT22;7459;53.590;10.062;2022-10-17T12:02:49;18.10;99.90
14737;DHT22;7459;53.590;10.062;2022-10-17T12:08:29;18.10;99.90
14737;DHT22;7459;53.590;10.062;2022-10-17T12:11:04;18.10;99.90
14737;DHT22;7459;53.590;10.062;2022-10-17T12:18:47;18.10;99.90
14737;DHT22;7459;53.590;10.062;2022-10-17T12:21:14;17.90;99.90
14737;DHT22;7459;53.590;10.062;2022-10-17T12:23:40;17.80;99.90
14737;DHT22;7459;53.590;10.062;2022-10-17T12:26:09;17.80;99.90
14737;DHT22;7459;53.590;10.062;2022-10-17T12:28:46;17.70;99.90
14737;DHT22;7459;53.590;10.062;2022-10-17T12:33:58;17.60;99.90
14737;DHT22;7459;53.590;10.062;2022-10-17T12:49:49;17.50;99.90
14737;DHT22;7459;53.590;10.062;2022-10-17T12:57:46;17.50;99.90
14737;DHT22;7459;53.590;10.062;2022-10-17T13:02:48;17.50;99.90
14737;DHT22;7459;53.590;10.062;2022-10-17T13:05:26;17.50;99.90
14737;DHT22;7459;53.590;10.062;2022-10-17T13:07:58;17.40;99.90
14737;DHT22;7459;53.590;10.062;2022-10-17T13:10:28;17.40;99.90
14737;DHT22;7459;53.590;10.062;2022-10-17T13:13:21;17.40;99.90
14737;DHT22;7459;53.590;10.062;2022-10-17T13:15:52;17.40;99.90
14737;DHT22;7459;53.590;10.062;2022-10-17T13:18:27;17.40;99.90
14737;DHT22;7459;53.590;10.062;2022-10-17T13:21:04;17.40;99.90
14737;DHT22;7459;53.590;10.062;2022-10-17T13:23:40;17.40;99.90
14737;DHT22;7459;53.590;10.062;2022-10-17T13:26:13;17.40;99.90
14737;DHT22;7459;53.590;10.062;2022-10-17T13:32:02;17.30;99.90
14737;DHT22;7459;53.590;10.062;2022-10-17T13:34:31;17.30;99.90
14737;DHT22;7459;53.590;10.062;2022-10-17T13:37:03;17.30;99.90
14737;DHT22;7459;53.590;10.062;2022-10-17T13:39:41;17.30;99.90
14737;DHT22;7459;53.590;10.062;2022-10-17T13:42:35;17.20;99.90
14737;DHT22;7459;53.590;10.062;2022-10-17T13:45:04;17.20;99.90
14737;DHT22;7459;53.590;10.062;2022-10-17T13:47:38;17.20;99.90
14737;DHT22;7459;53.590;10.062;2022-10-17T13:50:04;17.10;99.90
14737;DHT22;7459;53.590;10.062;2022-10-17T13:52:30;17.20;99.90
14737;DHT22;7459;53.590;10.062;2022-10-17T13:55:07;17.10;99.90
14737;DHT22;7459;53.590;10.062;2022-10-17T13:57:35;17.10;99.90
14737;DHT22;7459;53.590;10.062;2022-10-17T14:00:05;17.10;99.90
14737;DHT22;7459;53.590;10.062;2022-10-17T14:02:34;17.10;99.90
14737;DHT22;7459;53.590;10.062;2022-10-17T14:05:13;17.10;99.90
14737;DHT22;7459;53.590;10.062;2022-10-17T14:08:03;17.10;99.90
14737;DHT22;7459;53.590;10.062;2022-10-17T14:10:33;17.10;99.90
14737;DHT22;7459;53.590;10.062;2022-10-17T14:13:02;17.10;99.90
14737;DHT22;7459;53.590;10.062;2022-10-17T14:15:31;17.10;99.90
14737;DHT22;7459;53.590;10.062;2022-10-17T14:18:02;17.10;99.90
14737;DHT22;7459;53.590;10.062;2022-10-17T14:20:30;17.10;99.90
14737;DHT22;7459;53.590;10.062;2022-10-17T14:22:56;17.10;99.90
14737;DHT22;7459;53.590;10.062;2022-10-17T14:25:32;17.10;99.90
14737;DHT22;7459;53.590;10.062;2022-10-17T14:30:45;17.10;99.90
14737;DHT22;7459;53.590;10.062;2022-10-17T14:33:16;17.10;99.90
14737;DHT22;7459;53.590;10.062;2022-10-17T14:35:50;17.10;99.90
14737;DHT22;7459;53.590;10.062;2022-10-17T14:38:16;17.10;99.90
14737;DHT22;7459;53.590;10.062;2022-10-17T14:40:49;17.10;99.90
14737;DHT22;7459;53.590;10.062;2022-10-17T14:43:20;17.10;99.90
14737;DHT22;7459;53.590;10.062;2022-10-17T14:45:48;17.00;99.90
14737;DHT22;7459;53.590;10.062;2022-10-17T14:48:19;17.00;99.90
14737;DHT22;7459;53.590;10.062;2022-10-17T14:53:39;17.00;99.90
14737;DHT22;7459;53.590;10.062;2022-10-17T14:56:41;17.00;99.90
14737;DHT22;7459;53.590;10.062;2022-10-17T14:59:07;17.00;99.90
14737;DHT22;7459;53.590;10.062;2022-10-17T15:01:35;17.00;99.90
14737;DHT22;7459;53.590;10.062;2022-10-17T15:04:01;17.00;99.90
14737;DHT22;7459;53.590;10.062;2022-10-17T15:06:31;17.00;99.90
14737;DHT22;7459;53.590;10.062;2022-10-17T15:08:58;17.00;99.90
14737;DHT22;7459;53.590;10.062;2022-10-17T15:11:24;17.00;99.90
14737;DHT22;7459;53.590;10.062;2022-10-17T15:13:50;17.00;99.90
14737;DHT22;7459;53.590;10.062;2022-10-17T15:16:24;17.00;99.90
14737;DHT22;7459;53.590;10.062;2022-10-17T15:18:52;17.00;99.90
14737;DHT22;7459;53.590;10.062;2022-10-17T15:21:24;17.00;99.90
14737;DHT22;7459;53.590;10.062;2022-10-17T15:23:50;17.10;99.90
14737;DHT22;7459;53.590;10.062;2022-10-17T15:26:19;17.10;99.90
14737;DHT22;7459;53.590;10.062;2022-10-17T15:28:45;17.00;99.90
14737;DHT22;7459;53.590;10.062;2022-10-17T15:31:14;17.10;99.90
14737;DHT22;7459;53.590;10.062;2022-10-17T15:33:41;17.10;99.90
14737;DHT22;7459;53.590;10.062;2022-10-17T15:36:26;17.00;99.90
14737;DHT22;7459;53.590;10.062;2022-10-17T15:38:58;17.00;99.90
14737;DHT22;7459;53.590;10.062;2022-10-17T15:41:29;17.00;99.90
14737;DHT22;7459;53.590;10.062;2022-10-17T15:43:55;17.00;99.90
14737;DHT22;7459;53.590;10.062;2022-10-17T15:46:26;17.00;99.90
14737;DHT22;7459;53.590;10.062;2022-10-17T15:48:54;17.00;99.90
14737;DHT22;7459;53.590;10.062;2022-10-17T15:51:21;17.00;99.90
14737;DHT22;7459;53.590;10.062;2022-10-17T15:53:47;17.00;99.90
14737;DHT22;7459;53.590;10.062;2022-10-17T15:56:20;17.00;99.90
14737;DHT22;7459;53.590;10.062;2022-10-17T15:58:48;17.00;99.90
14737;DHT22;7459;53.590;10.062;2022-10-17T16:01:22;17.00;99.90
14737;DHT22;7459;53.590;10.062;2022-10-17T16:03:52;17.00;99.90
14737;DHT22;7459;53.590;10.062;2022-10-17T16:06:19;16.90;99.90
14737;DHT22;7459;53.590;10.062;2022-10-17T16:08:46;17.00;99.90
14737;DHT22;7459;53.590;10.062;2022-10-17T16:11:23;16.90;99.90
14737;DHT22;7459;53.590;10.062;2022-10-17T16:13:52;16.90;99.90
14737;DHT22;7459;53.590;10.062;2022-10-17T16:16:19;17.00;99.90
14737;DHT22;7459;53.590;10.062;2022-10-17T16:18:46;16.90;99.90
14737;DHT22;7459;53.590;10.062;2022-10-17T16:21:13;16.90;99.90
14737;DHT22;7459;53.590;10.062;2022-10-17T16:23:40;16.90;99.90
14737;DHT22;7459;53.590;10.062;2022-10-17T16:26:07;16.90;99.90
14737;DHT22;7459;53.590;10.062;2022-10-17T16:28:34;16.90;99.90
14737;DHT22;7459;53.590;10.062;2022-10-17T16:31:00;16.90;99.90
14737;DHT22;7459;53.590;10.062;2022-10-17T16:33:26;16.80;99.90
14737;DHT22;7459;53.590;10.062;2022-10-17T16:35:51;16.90;99.90
14737;DHT22;7459;53.590;10.062;2022-10-17T16:38:17;16.90;99.90
14737;DHT22;7459;53.590;10.062;2022-10-17T16:40:43;16.90;99.90
14737;DHT22;7459;53.590;10.062;2022-10-17T16:43:12;16.80;99.90
14737;DHT22;7459;53.590;10.062;2022-10-17T16:45:38;16.80;99.90
14737;DHT22;7459;53.590;10.062;2022-10-17T16:48:04;16.80;99.90
14737;DHT22;7459;53.590;10.062;2022-10-17T16:50:30;16.80;99.90
14737;DHT22;7459;53.590;10.062;2022-10-17T16:53:00;16.80;99.90
14737;DHT22;7459;53.590;10.062;2022-10-17T16:55:26;16.80;99.90
14737;DHT22;7459;53.590;10.062;2022-10-17T16:57:52;16.80;99.90
14737;DHT22;7459;53.590;10.062;2022-10-17T17:00:18;16.80;99.90
14737;DHT22;7459;53.590;10.062;2022-10-17T17:02:46;16.80;99.90
14737;DHT22;7459;53.590;10.062;2022-10-17T17:05:12;16.80;99.90
14737;DHT22;7459;53.590;10.062;2022-10-17T17:07:38;16.80;99.90
14737;DHT22;7459;53.590;10.062;2022-10-17T17:10:04;16.80;99.90
14737;DHT22;7459;53.590;10.062;2022-10-17T17:12:34;16.80;99.90
14737;DHT22;7459;53.590;10.062;2022-10-17T17:15:00;16.80;99.90
14737;DHT22;7459;53.590;10.062;2022-10-17T17:17:26;16.80;99.90
14737;DHT22;7459;53.590;10.062;2022-10-17T17:19:52;16.80;99.90
14737;DHT22;7459;53.590;10.062;2022-10-17T17:22:17;16.80;99.90